»·PEaware :: UPS76 KSDF-PANC

UPS76 :: KSDF-PANC

FLIGHT INFORMATION

Flight Status: Arrived
Operator:
United Parcel Service
More flights by this operator :: More flights under this callsign
Pilot: Jerome G. (4242)
Aircraft: BOEING 747-400 (WINGLETS)
(B744)
More flights by this aircraft type
Origin: KSDF Louisville Intl-Standiford
United States
Destination: PANC Stevens Anchorage Intl
United States
More flights between these airports :: More routes between these airports
Route: TTH DCT EMTEE DCT BDF DCT DBQ DCT GEP DCT GFK DCT YDR J504 VLN J475 YWV NCA11 YXY59/N0497F400 NCA11 REMBY WITTI3
File this flight plan on PilotEdge
Remarks:
Altitude:
(Current/Filed)
38,000ft
Speed:
(Current/Filed)
480kts
Departed: 11-Nov-17 01:21 PM
Arrived: 11-Nov-17 07:46 PM
Distance/Time
Traveled:
2705nm/6:25
Distance/Time
To Go:
Arrived

Flight Plot

Page will automatically refresh every two minutes.

Flight plan parsing failed; only flown route is shown


Map Options




Map Legend


Flown Route
Filed Route
Departure Airport
Arrival Airport
Navaid (VOR, NDB)
Fix

Horizontal Profiles

Position Reports

Time Latitude Longitude Heading Altitude Ground
Speed
11-Nov-17 12:22 38.169722 -85.736882 201 514ft 0kts
11-Nov-17 12:23 38.169722 -85.736882 201 514ft 0kts
11-Nov-17 12:24 38.169722 -85.736882 201 514ft 0kts
11-Nov-17 12:25 38.169722 -85.736882 201 514ft 0kts
11-Nov-17 12:26 38.169722 -85.736882 201 514ft 0kts
11-Nov-17 12:27 38.169722 -85.736882 201 514ft 0kts
11-Nov-17 12:28 38.169722 -85.736882 201 514ft 0kts
11-Nov-17 12:29 38.169722 -85.736882 201 514ft 0kts
11-Nov-17 12:30 38.169722 -85.736882 201 514ft 0kts
11-Nov-17 12:31 38.169722 -85.736882 201 514ft 0kts
11-Nov-17 12:32 38.169722 -85.736882 201 514ft 0kts
11-Nov-17 12:33 38.169722 -85.736882 201 514ft 0kts
11-Nov-17 12:34 38.169722 -85.736882 201 514ft 0kts
11-Nov-17 12:35 38.169722 -85.736882 201 514ft 0kts
11-Nov-17 12:36 38.169722 -85.736882 201 514ft 0kts
11-Nov-17 12:37 38.169722 -85.736882 201 514ft 0kts
11-Nov-17 12:38 38.169722 -85.736882 201 514ft 0kts
11-Nov-17 12:39 38.169722 -85.736882 201 514ft 0kts
11-Nov-17 12:40 38.169722 -85.736882 201 514ft 0kts
11-Nov-17 12:41 38.169722 -85.736882 201 514ft 0kts
11-Nov-17 12:42 38.169722 -85.736882 201 514ft 0kts
11-Nov-17 12:43 38.169722 -85.736882 201 514ft 0kts
11-Nov-17 12:44 38.169722 -85.736882 201 514ft 0kts
11-Nov-17 12:45 38.169722 -85.736882 201 514ft 0kts
11-Nov-17 12:46 38.169722 -85.736882 201 514ft 0kts
11-Nov-17 12:47 38.169722 -85.736882 201 514ft 0kts
11-Nov-17 12:48 38.169722 -85.736882 201 514ft 0kts
11-Nov-17 12:49 38.169722 -85.736882 201 514ft 0kts
11-Nov-17 12:50 38.169722 -85.736882 201 514ft 0kts
11-Nov-17 12:51 38.169722 -85.736882 201 514ft 0kts
11-Nov-17 12:52 38.169722 -85.736882 201 514ft 0kts
11-Nov-17 12:53 38.169722 -85.736882 201 514ft 0kts
11-Nov-17 12:54 38.169722 -85.736882 201 514ft 0kts
11-Nov-17 12:55 38.169722 -85.736882 201 514ft 0kts
11-Nov-17 12:56 38.169722 -85.736882 201 514ft 0kts
11-Nov-17 12:57 38.169722 -85.736882 201 514ft 0kts
11-Nov-17 12:58 38.169722 -85.736882 201 514ft 0kts
11-Nov-17 12:59 38.169722 -85.736882 201 514ft 0kts
11-Nov-17 13:00 38.169722 -85.736882 201 514ft 0kts
11-Nov-17 13:01 38.169722 -85.736882 201 514ft 0kts
11-Nov-17 13:02 38.169722 -85.736882 201 514ft 0kts
11-Nov-17 13:03 38.169722 -85.736882 201 514ft 0kts
11-Nov-17 13:04 38.169722 -85.736882 201 514ft 0kts
11-Nov-17 13:05 38.169722 -85.736882 201 514ft 0kts
11-Nov-17 13:06 38.169722 -85.736882 201 514ft 0kts
11-Nov-17 13:07 38.169722 -85.736882 201 514ft 0kts
11-Nov-17 13:08 38.169722 -85.736882 201 514ft 0kts
11-Nov-17 13:09 38.169722 -85.736882 201 514ft 0kts
11-Nov-17 13:10 38.169722 -85.736882 201 514ft 0kts
11-Nov-17 13:11 38.169722 -85.736882 201 514ft 0kts
11-Nov-17 13:12 38.169722 -85.736882 201 514ft 0kts
11-Nov-17 13:13 38.169722 -85.736882 201 514ft 0kts
11-Nov-17 13:14 38.170027 -85.736682 226 514ft 2kts
11-Nov-17 13:15 38.170089 -85.736066 291 514ft 2kts
11-Nov-17 13:16 38.170051 -85.735942 291 514ft 0kts
11-Nov-17 13:17 38.170051 -85.735942 291 514ft 0kts
11-Nov-17 13:18 38.170051 -85.735942 291 514ft 0kts
11-Nov-17 13:19 38.170645 -85.737862 291 514ft 12kts
11-Nov-17 13:20 38.171387 -85.740702 260 514ft 12kts
11-Nov-17 13:21 38.168962 -85.741174 165 514ft 18kts
11-Nov-17 13:22 38.163312 -85.739312 166 514ft 19kts
11-Nov-17 13:23 38.158847 -85.737867 178 514ft 9kts
11-Nov-17 13:24 38.157216 -85.738897 163 514ft 12kts
11-Nov-17 13:25 38.155544 -85.738090 264 514ft 10kts
11-Nov-17 13:26 38.157099 -85.738928 345 514ft 48kts
11-Nov-17 13:27 38.200299 -85.752783 345 2521ft 197kts
11-Nov-17 13:28 38.264894 -85.772639 337 4156ft 264kts
11-Nov-17 13:29 38.321653 -85.831432 315 6385ft 269kts
11-Nov-17 13:30 38.378097 -85.897726 313 9429ft 283kts
11-Nov-17 13:31 38.439956 -85.971507 312 11185ft 347kts
11-Nov-17 13:32 38.517291 -86.063893 312 13421ft 396kts
11-Nov-17 13:33 38.598981 -86.161753 311 17085ft 409kts
11-Nov-17 13:34 38.683714 -86.263580 311 20289ft 425kts
11-Nov-17 13:35 38.771154 -86.369025 310 23121ft 440kts
11-Nov-17 13:36 38.859292 -86.475692 310 25799ft 450kts
11-Nov-17 13:37 38.951158 -86.587276 310 28107ft 457kts
11-Nov-17 13:38 39.040941 -86.696733 309 31034ft 438kts
11-Nov-17 13:39 39.127870 -86.803104 309 33486ft 421kts
11-Nov-17 13:40 39.211902 -86.906284 309 35286ft 413kts
11-Nov-17 13:41 39.294444 -87.007534 308 36877ft 404kts
11-Nov-17 13:42 39.375492 -87.107885 308 38126ft 399kts
11-Nov-17 13:43 39.455376 -87.207246 308 38369ft 398kts
11-Nov-17 13:44 39.531678 -87.309677 303 38369ft 394kts
11-Nov-17 13:45 39.603640 -87.415565 304 38367ft 392kts
11-Nov-17 13:46 39.675258 -87.520370 304 38361ft 391kts
11-Nov-17 13:47 39.747621 -87.625754 304 38360ft 391kts
11-Nov-17 13:48 39.820310 -87.731521 303 38356ft 391kts
11-Nov-17 13:49 39.892215 -87.837405 303 38350ft 390kts
11-Nov-17 13:50 39.963739 -87.943354 303 38342ft 389kts
11-Nov-17 13:51 40.036880 -88.048348 306 38340ft 392kts
11-Nov-17 13:52 40.113206 -88.149999 305 38340ft 393kts
11-Nov-17 13:53 40.189404 -88.252660 305 38339ft 392kts
11-Nov-17 13:54 40.265375 -88.355045 305 38337ft 393kts
11-Nov-17 13:55 40.339844 -88.455211 305 38335ft 395kts
11-Nov-17 13:56 40.416741 -88.559523 305 38331ft 395kts
11-Nov-17 13:57 40.493098 -88.663563 305 38325ft 397kts
11-Nov-17 13:58 40.569696 -88.768318 305 38322ft 398kts
11-Nov-17 13:59 40.646597 -88.873863 305 38322ft 399kts
11-Nov-17 14:00 40.723289 -88.979494 305 38321ft 400kts
11-Nov-17 14:01 40.800160 -89.085755 305 38316ft 401kts
11-Nov-17 14:02 40.877317 -89.192794 305 38311ft 401kts
11-Nov-17 14:03 40.954334 -89.299681 305 38310ft 402kts
11-Nov-17 14:04 41.031276 -89.407076 305 38310ft 403kts
11-Nov-17 14:05 41.107402 -89.514193 305 38311ft 404kts
11-Nov-17 14:06 41.190147 -89.616236 315 38313ft 414kts
11-Nov-17 14:07 41.287276 -89.701426 316 38302ft 421kts
11-Nov-17 14:08 41.385244 -89.788226 316 38300ft 423kts
11-Nov-17 14:09 41.483115 -89.875177 317 38293ft 424kts
11-Nov-17 14:10 41.581458 -89.962769 316 38289ft 424kts
11-Nov-17 14:11 41.679706 -90.050903 316 38284ft 426kts
11-Nov-17 14:12 41.778008 -90.139460 316 38275ft 426kts
11-Nov-17 14:13 41.876515 -90.228543 316 38271ft 426kts
11-Nov-17 14:14 41.974586 -90.317569 316 38270ft 426kts
11-Nov-17 14:15 42.071313 -90.405706 316 38267ft 426kts
11-Nov-17 14:16 42.169894 -90.495532 316 38258ft 427kts
11-Nov-17 14:17 42.268046 -90.585731 316 38251ft 428kts
11-Nov-17 14:18 42.366360 -90.676574 316 38250ft 428kts
11-Nov-17 14:19 42.465111 -90.767582 316 38249ft 428kts
11-Nov-17 14:20 42.563517 -90.858584 316 38251ft 428kts
11-Nov-17 14:21 42.661867 -90.949967 316 38253ft 429kts
11-Nov-17 14:22 42.761111 -91.041593 316 38257ft 430kts
11-Nov-17 14:23 42.859960 -91.133529 316 38256ft 431kts
11-Nov-17 14:24 42.958945 -91.226144 316 38256ft 430kts
11-Nov-17 14:25 43.056175 -91.317512 316 38253ft 430kts
11-Nov-17 14:26 43.154823 -91.410582 316 38236ft 432kts
11-Nov-17 14:27 43.254035 -91.504566 316 38220ft 432kts
11-Nov-17 14:28 43.352916 -91.598613 316 38214ft 433kts
11-Nov-17 14:29 43.451821 -91.693065 316 38215ft 433kts
11-Nov-17 14:30 43.551097 -91.788255 316 38215ft 434kts
11-Nov-17 14:31 43.650270 -91.883738 316 38216ft 435kts
11-Nov-17 14:32 43.749451 -91.979622 316 38215ft 436kts
11-Nov-17 14:33 43.848950 -92.076212 316 38216ft 436kts
11-Nov-17 14:34 43.948007 -92.172772 316 38217ft 436kts
11-Nov-17 14:35 44.044224 -92.266949 316 38215ft 435kts
11-Nov-17 14:36 44.143439 -92.364462 316 38210ft 436kts
11-Nov-17 14:37 44.242387 -92.462120 316 38211ft 436kts
11-Nov-17 14:38 44.341253 -92.560112 316 38205ft 436kts
11-Nov-17 14:39 44.440252 -92.658646 316 38203ft 436kts
11-Nov-17 14:40 44.538871 -92.757222 316 38199ft 436kts
11-Nov-17 14:41 44.637555 -92.856284 316 38195ft 436kts
11-Nov-17 14:42 44.736561 -92.956096 316 38193ft 437kts
11-Nov-17 14:43 44.835190 -93.055957 316 38190ft 437kts
11-Nov-17 14:44 44.934342 -93.156307 316 38194ft 438kts
11-Nov-17 14:45 45.030191 -93.254400 315 38183ft 437kts
11-Nov-17 14:46 45.128644 -93.355605 316 38180ft 439kts
11-Nov-17 14:47 45.220884 -93.467177 310 38178ft 433kts
11-Nov-17 14:48 45.310080 -93.581827 310 38183ft 433kts
11-Nov-17 14:49 45.399497 -93.696574 310 38182ft 434kts
11-Nov-17 14:50 45.489967 -93.811325 311 38183ft 434kts
11-Nov-17 14:51 45.579662 -93.926395 310 38174ft 434kts
11-Nov-17 14:52 45.669189 -94.041968 310 38173ft 434kts
11-Nov-17 14:53 45.759012 -94.158485 310 38178ft 435kts
11-Nov-17 14:54 45.848392 -94.274963 310 38186ft 435kts
11-Nov-17 14:55 45.935674 -94.389219 310 38189ft 435kts
11-Nov-17 14:56 46.025234 -94.506994 310 38186ft 436kts
11-Nov-17 14:57 46.114613 -94.625063 310 38181ft 437kts
11-Nov-17 14:58 46.204028 -94.743730 310 38179ft 437kts
11-Nov-17 14:59 46.293748 -94.863351 310 38633ft 440kts
11-Nov-17 15:00 46.383705 -94.983860 311 39482ft 441kts
11-Nov-17 15:01 46.473830 -95.105161 311 40182ft 442kts
11-Nov-17 15:02 46.563685 -95.226664 311 40188ft 442kts
11-Nov-17 15:03 46.653568 -95.348791 311 40188ft 443kts
11-Nov-17 15:04 46.743654 -95.471780 311 40197ft 443kts
11-Nov-17 15:05 46.831987 -95.592954 311 40213ft 443kts
11-Nov-17 15:06 46.921529 -95.716370 311 40223ft 443kts
11-Nov-17 15:07 47.011425 -95.840879 311 40224ft 444kts
11-Nov-17 15:08 47.101079 -95.965657 311 40235ft 445kts
11-Nov-17 15:09 47.190893 -96.091271 311 40239ft 448kts
11-Nov-17 15:10 47.281240 -96.218256 311 40241ft 448kts
11-Nov-17 15:11 47.371072 -96.345145 311 40244ft 448kts
11-Nov-17 15:12 47.460855 -96.472596 311 40244ft 448kts
11-Nov-17 15:13 47.550759 -96.600861 311 40249ft 448kts
11-Nov-17 15:14 47.640311 -96.729267 311 40243ft 448kts
11-Nov-17 15:15 47.728618 -96.856410 311 40239ft 449kts
11-Nov-17 15:16 47.818581 -96.986188 311 40216ft 450kts
11-Nov-17 15:17 47.907866 -97.116669 311 40186ft 450kts
11-Nov-17 15:18 47.991159 -97.255783 303 40191ft 447kts
11-Nov-17 15:19 48.063933 -97.406633 303 40244ft 449kts
11-Nov-17 15:20 48.137261 -97.557857 303 40264ft 449kts
11-Nov-17 15:21 48.211600 -97.709007 303 40268ft 449kts
11-Nov-17 15:22 48.285250 -97.860155 303 40269ft 449kts
11-Nov-17 15:23 48.358504 -98.011883 303 40245ft 449kts
11-Nov-17 15:24 48.431856 -98.164772 303 40246ft 450kts
11-Nov-17 15:25 48.503330 -98.314602 303 40237ft 450kts
11-Nov-17 15:26 48.576279 -98.468384 303 40226ft 451kts
11-Nov-17 15:27 48.649390 -98.623391 303 40224ft 452kts
11-Nov-17 15:28 48.722174 -98.778597 302 40234ft 453kts
11-Nov-17 15:29 48.794761 -98.934276 302 40242ft 453kts
11-Nov-17 15:30 48.867481 -99.091149 302 40243ft 454kts
11-Nov-17 15:31 48.939851 -99.248182 302 40234ft 454kts
11-Nov-17 15:32 49.012109 -99.405891 302 40232ft 455kts
11-Nov-17 15:33 49.084476 -99.564774 302 40231ft 455kts
11-Nov-17 15:34 49.156506 -99.723858 302 40228ft 456kts
11-Nov-17 15:35 49.227097 -99.880691 302 40236ft 457kts
11-Nov-17 15:36 49.299146 -100.041710 302 40242ft 457kts
11-Nov-17 15:37 49.370794 -100.202801 302 40240ft 458kts
11-Nov-17 15:38 49.442543 -100.365104 302 40240ft 459kts
11-Nov-17 15:39 49.502005 -100.500365 302 40240ft 458kts
11-Nov-17 15:40 49.584963 -100.690229 301 40240ft 458kts
11-Nov-17 15:41 49.656065 -100.854046 301 40240ft 458kts
11-Nov-17 15:42 49.726703 -101.017801 301 40240ft 459kts
11-Nov-17 15:43 49.785489 -101.154858 301 40239ft 459kts
11-Nov-17 15:44 49.856062 -101.320336 301 40241ft 460kts
11-Nov-17 15:45 49.937020 -101.511453 301 40245ft 460kts
11-Nov-17 15:46 49.995415 -101.650165 301 40248ft 461kts
11-Nov-17 15:47 50.065570 -101.817785 301 40247ft 462kts
11-Nov-17 15:48 50.135294 -101.985439 301 40245ft 461kts
11-Nov-17 15:49 50.216693 -102.181272 301 40244ft 461kts
11-Nov-17 15:50 50.274504 -102.322450 301 40242ft 461kts
11-Nov-17 15:51 50.343189 -102.491646 301 40241ft 461kts
11-Nov-17 15:52 50.383445 -102.680468 281 40241ft 460kts
11-Nov-17 15:53 50.409155 -102.877320 281 40241ft 460kts
11-Nov-17 15:54 50.435242 -103.073658 281 40244ft 460kts
11-Nov-17 15:55 50.462262 -103.267426 281 40239ft 460kts
11-Nov-17 15:56 50.488604 -103.464959 281 40241ft 462kts
11-Nov-17 15:57 50.514435 -103.662347 281 40243ft 462kts
11-Nov-17 15:58 50.539921 -103.859971 281 40245ft 462kts
11-Nov-17 15:59 50.565155 -104.058481 281 40247ft 462kts
11-Nov-17 16:00 50.589970 -104.256538 280 40248ft 462kts
11-Nov-17 16:01 50.614918 -104.454688 281 40249ft 462kts
11-Nov-17 16:02 50.639014 -104.653767 280 40249ft 461kts
11-Nov-17 16:03 50.663060 -104.852208 286 40160ft 461kts
11-Nov-17 16:04 50.726123 -105.028309 303 40101ft 462kts
11-Nov-17 16:05 50.797625 -105.193467 303 40038ft 462kts
11-Nov-17 16:06 50.869568 -105.361577 304 39998ft 462kts
11-Nov-17 16:07 50.942473 -105.529989 303 39987ft 462kts
11-Nov-17 16:08 51.014321 -105.698987 303 39916ft 461kts
11-Nov-17 16:09 51.085685 -105.868288 303 39960ft 462kts
11-Nov-17 16:10 51.157035 -106.038728 303 40004ft 461kts
11-Nov-17 16:11 51.227699 -106.208649 302 40046ft 460kts
11-Nov-17 16:12 51.298082 -106.379008 302 40084ft 460kts
11-Nov-17 16:13 51.368438 -106.550432 302 40116ft 460kts
11-Nov-17 16:14 51.438196 -106.721529 302 40142ft 459kts
11-Nov-17 16:15 51.506552 -106.890298 302 40162ft 459kts
11-Nov-17 16:16 51.575976 -107.062836 301 40175ft 459kts
11-Nov-17 16:17 51.644898 -107.235277 301 40185ft 458kts
11-Nov-17 16:18 51.713525 -107.408140 301 40189ft 458kts
11-Nov-17 16:19 51.782050 -107.581916 301 40191ft 457kts
11-Nov-17 16:20 51.848749 -107.752168 300 40218ft 439kts
11-Nov-17 16:21 51.913813 -107.919392 300 40216ft 440kts
11-Nov-17 16:22 51.979044 -108.088139 300 40213ft 440kts
11-Nov-17 16:23 52.043777 -108.256704 300 40210ft 440kts
11-Nov-17 16:24 52.108276 -108.425771 300 40198ft 440kts
11-Nov-17 16:25 52.171942 -108.593775 299 40195ft 439kts
11-Nov-17 16:26 52.235833 -108.763482 299 40201ft 440kts
11-Nov-17 16:27 52.299654 -108.934153 299 40199ft 439kts
11-Nov-17 16:28 52.362931 -109.104511 299 40197ft 439kts
11-Nov-17 16:29 52.426016 -109.275502 299 40188ft 439kts
11-Nov-17 16:30 52.489042 -109.447499 299 40184ft 439kts
11-Nov-17 16:31 52.551614 -109.619425 298 40178ft 439kts
11-Nov-17 16:32 52.613955 -109.791893 298 40172ft 439kts
11-Nov-17 16:33 52.676251 -109.965430 298 40166ft 439kts
11-Nov-17 16:34 52.738057 -110.138793 298 40150ft 438kts
11-Nov-17 16:35 52.798734 -110.310170 298 40147ft 438kts
11-Nov-17 16:36 52.860669 -110.484494 297 40145ft 438kts
11-Nov-17 16:37 52.921287 -110.659138 297 40144ft 438kts
11-Nov-17 16:38 52.982029 -110.833834 299 40138ft 438kts
11-Nov-17 16:39 53.053034 -110.998958 303 40139ft 439kts
11-Nov-17 16:40 53.124393 -111.163563 302 40138ft 439kts
11-Nov-17 16:41 53.195369 -111.328426 303 40137ft 438kts
11-Nov-17 16:42 53.267176 -111.493614 302 40135ft 439kts
11-Nov-17 16:43 53.337993 -111.659460 301 40132ft 438kts
11-Nov-17 16:44 53.408408 -111.825767 301 40130ft 438kts
11-Nov-17 16:45 53.477956 -111.991163 301 40129ft 438kts
11-Nov-17 16:46 53.547940 -112.158696 301 40127ft 438kts
11-Nov-17 16:47 53.617892 -112.327284 301 40126ft 438kts
11-Nov-17 16:48 53.687405 -112.495937 301 40131ft 438kts
11-Nov-17 16:49 53.756736 -112.665286 300 40133ft 439kts
11-Nov-17 16:50 53.826178 -112.836058 300 40132ft 440kts
11-Nov-17 16:51 53.895190 -113.006931 300 40132ft 440kts
11-Nov-17 16:52 53.963936 -113.178311 300 40131ft 440kts
11-Nov-17 16:53 54.032772 -113.351097 299 40132ft 441kts
11-Nov-17 16:54 54.101216 -113.524043 300 40125ft 441kts
11-Nov-17 16:55 54.168985 -113.695072 299 40123ft 441kts
11-Nov-17 16:56 54.236917 -113.870279 299 40123ft 441kts
11-Nov-17 16:57 54.304506 -114.045190 299 40114ft 441kts
11-Nov-17 16:58 54.371601 -114.220948 298 40116ft 441kts
11-Nov-17 16:59 54.438331 -114.397448 298 40116ft 441kts
11-Nov-17 17:00 54.505958 -114.574511 299 40118ft 442kts
11-Nov-17 17:01 54.573243 -114.751598 298 40119ft 442kts
11-Nov-17 17:02 54.640222 -114.930469 298 40123ft 443kts
11-Nov-17 17:03 54.706664 -115.109432 298 40125ft 443kts
11-Nov-17 17:04 54.772870 -115.289100 298 40127ft 443kts
11-Nov-17 17:05 54.838328 -115.468052 297 40128ft 443kts
11-Nov-17 17:06 54.903933 -115.648711 297 40130ft 443kts
11-Nov-17 17:07 54.969500 -115.830605 297 40126ft 443kts
11-Nov-17 17:08 55.034574 -116.012473 297 40125ft 443kts
11-Nov-17 17:09 55.099625 -116.195639 297 40128ft 445kts
11-Nov-17 17:10 55.164704 -116.380263 297 40131ft 445kts
11-Nov-17 17:11 55.229239 -116.564732 297 40148ft 445kts
11-Nov-17 17:12 55.293446 -116.749659 297 40153ft 444kts
11-Nov-17 17:13 55.357547 -116.935687 296 40159ft 444kts
11-Nov-17 17:14 55.421168 -117.121743 296 40164ft 444kts
11-Nov-17 17:15 55.483730 -117.306109 296 40171ft 445kts
11-Nov-17 17:16 55.547089 -117.494253 296 40172ft 445kts
11-Nov-17 17:17 55.610017 -117.682582 296 40175ft 445kts
11-Nov-17 17:18 55.672693 -117.871631 296 40175ft 446kts
11-Nov-17 17:19 55.735328 -118.062045 295 40175ft 446kts
11-Nov-17 17:20 55.797458 -118.252427 295 40184ft 446kts
11-Nov-17 17:21 55.859316 -118.443487 295 40183ft 446kts
11-Nov-17 17:22 55.921134 -118.635955 295 40182ft 446kts
11-Nov-17 17:23 55.982521 -118.828631 295 40181ft 448kts
11-Nov-17 17:24 56.043673 -119.022128 295 40183ft 447kts
11-Nov-17 17:25 56.103912 -119.214286 294 40183ft 448kts
11-Nov-17 17:26 56.164586 -119.409409 294 40183ft 449kts
11-Nov-17 17:27 56.225098 -119.605626 294 40184ft 450kts
11-Nov-17 17:28 56.285945 -119.803157 295 40184ft 451kts
11-Nov-17 17:29 56.346018 -120.000967 294 40185ft 450kts
11-Nov-17 17:30 56.405587 -120.200484 294 40190ft 451kts
11-Nov-17 17:31 56.464792 -120.399902 293 40190ft 450kts
11-Nov-17 17:32 56.523303 -120.600083 293 40191ft 450kts
11-Nov-17 17:33 56.581597 -120.801663 293 40192ft 450kts
11-Nov-17 17:34 56.640973 -121.002018 293 40193ft 451kts
11-Nov-17 17:35 56.698785 -121.201617 293 40195ft 452kts
11-Nov-17 17:36 56.756890 -121.404938 293 40197ft 452kts
11-Nov-17 17:37 56.814513 -121.608518 293 40201ft 452kts
11-Nov-17 17:38 56.871808 -121.812764 292 40168ft 452kts
11-Nov-17 17:39 56.928930 -122.018223 292 40169ft 452kts
11-Nov-17 17:40 56.985684 -122.224202 292 40173ft 454kts
11-Nov-17 17:41 57.042089 -122.430770 292 40177ft 453kts
11-Nov-17 17:42 57.098304 -122.638528 292 40176ft 453kts
11-Nov-17 17:43 57.154028 -122.846364 292 40180ft 454kts
11-Nov-17 17:44 57.209647 -123.055729 292 40186ft 454kts
11-Nov-17 17:45 57.264053 -123.262439 292 40155ft 454kts
11-Nov-17 17:46 57.318844 -123.472535 291 40159ft 454kts
11-Nov-17 17:47 57.373497 -123.684090 291 40164ft 454kts
11-Nov-17 17:48 57.427620 -123.895592 291 40167ft 454kts
11-Nov-17 17:49 57.481361 -124.107606 291 40169ft 454kts
11-Nov-17 17:50 57.534935 -124.321000 291 40171ft 454kts
11-Nov-17 17:51 57.588565 -124.533935 291 40171ft 455kts
11-Nov-17 17:52 57.641177 -124.748569 290 40171ft 455kts
11-Nov-17 17:53 57.693509 -124.964770 290 40170ft 456kts
11-Nov-17 17:54 57.745392 -125.181268 290 40168ft 457kts
11-Nov-17 17:55 57.796136 -125.396723 290 40166ft 457kts
11-Nov-17 17:56 57.847331 -125.615854 291 40164ft 458kts
11-Nov-17 17:57 57.899656 -125.833578 290 40163ft 457kts
11-Nov-17 17:58 57.942182 -126.016013 290 40161ft 457kts
11-Nov-17 17:59 58.001224 -126.272986 290 40160ft 457kts
11-Nov-17 18:00 58.051279 -126.493482 290 40158ft 458kts
11-Nov-17 18:01 58.092771 -126.678027 290 40158ft 459kts
11-Nov-17 18:02 58.142486 -126.901310 290 40158ft 460kts
11-Nov-17 18:03 58.191809 -127.125203 289 40158ft 462kts
11-Nov-17 18:04 58.249036 -127.388039 289 40112ft 463kts
11-Nov-17 18:05 58.297320 -127.612423 289 40111ft 464kts
11-Nov-17 18:06 58.337683 -127.801882 289 40112ft 464kts
11-Nov-17 18:07 58.385776 -128.029946 289 40113ft 464kts
11-Nov-17 18:08 58.433672 -128.259631 288 40084ft 465kts
11-Nov-17 18:09 58.481006 -128.489208 288 39893ft 464kts
11-Nov-17 18:10 58.528075 -128.720123 288 39868ft 466kts
11-Nov-17 18:11 58.574698 -128.951496 288 39850ft 467kts
11-Nov-17 18:12 58.620980 -129.183863 288 39833ft 467kts
11-Nov-17 18:13 58.667105 -129.418038 289 39819ft 468kts
11-Nov-17 18:14 58.713239 -129.651919 288 39811ft 469kts
11-Nov-17 18:15 58.757453 -129.884685 288 39809ft 469kts
11-Nov-17 18:16 58.802141 -130.121451 288 39817ft 470kts
11-Nov-17 18:17 58.846053 -130.359227 288 39831ft 470kts
11-Nov-17 18:18 58.889342 -130.597262 288 39853ft 470kts
11-Nov-17 18:19 58.934183 -130.835565 288 39879ft 470kts
11-Nov-17 18:20 58.977633 -131.074541 288 39910ft 471kts
11-Nov-17 18:21 59.020463 -131.314536 288 39940ft 472kts
11-Nov-17 18:22 59.063008 -131.556203 288 39970ft 472kts
11-Nov-17 18:23 59.105019 -131.798000 288 39998ft 472kts
11-Nov-17 18:24 59.146572 -132.040348 287 40023ft 472kts
11-Nov-17 18:25 59.187202 -132.280470 288 40049ft 473kts
11-Nov-17 18:26 59.228640 -132.523700 288 40077ft 473kts
11-Nov-17 18:27 59.268508 -132.768518 287 40121ft 474kts
11-Nov-17 18:28 59.308234 -133.015195 287 40166ft 475kts
11-Nov-17 18:29 59.347338 -133.261859 287 40173ft 474kts
11-Nov-17 18:30 59.385875 -133.509846 287 40184ft 475kts
11-Nov-17 18:31 59.424938 -133.757181 288 40197ft 474kts
11-Nov-17 18:32 59.463664 -134.004888 287 40217ft 475kts
11-Nov-17 18:33 59.501531 -134.254408 287 40272ft 475kts
11-Nov-17 18:34 59.538747 -134.503602 287 40290ft 475kts
11-Nov-17 18:35 59.575852 -134.750088 287 40293ft 475kts
11-Nov-17 18:36 59.611761 -135.001850 286 40307ft 475kts
11-Nov-17 18:37 59.647643 -135.252966 287 40314ft 475kts
11-Nov-17 18:38 59.682080 -135.504977 286 40311ft 475kts
11-Nov-17 18:39 59.715971 -135.758199 286 40305ft 474kts
11-Nov-17 18:40 59.749258 -136.010948 286 40260ft 474kts
11-Nov-17 18:41 59.781786 -136.264159 286 40256ft 474kts
11-Nov-17 18:42 59.815104 -136.518293 287 40261ft 475kts
11-Nov-17 18:43 59.848211 -136.772280 286 40254ft 476kts
11-Nov-17 18:44 59.880241 -137.027584 286 40244ft 476kts
11-Nov-17 18:45 59.911381 -137.280762 286 40233ft 476kts
11-Nov-17 18:46 59.942373 -137.537274 286 40186ft 477kts
11-Nov-17 18:47 59.972853 -137.794164 286 40154ft 476kts
11-Nov-17 18:48 60.002913 -138.052198 286 40147ft 476kts
11-Nov-17 18:49 60.032380 -138.309914 285 40140ft 476kts
11-Nov-17 18:50 60.062108 -138.567489 285 40132ft 475kts
11-Nov-17 18:51 60.090036 -138.826612 285 40124ft 474kts
11-Nov-17 18:52 60.117624 -139.084761 285 40118ft 474kts
11-Nov-17 18:53 60.144390 -139.344202 285 40115ft 474kts
11-Nov-17 18:54 60.170331 -139.603376 285 40117ft 474kts
11-Nov-17 18:55 60.197375 -139.859225 286 40130ft 474kts
11-Nov-17 18:56 60.223897 -140.119640 285 40139ft 474kts
11-Nov-17 18:57 60.249346 -140.379735 285 40149ft 474kts
11-Nov-17 18:58 60.274179 -140.639854 285 40161ft 473kts
11-Nov-17 18:59 60.298521 -140.900699 285 40171ft 472kts
11-Nov-17 19:00 60.322222 -141.160483 285 40182ft 471kts
11-Nov-17 19:01 60.345427 -141.420791 285 40191ft 472kts
11-Nov-17 19:02 60.368206 -141.682436 285 40199ft 472kts
11-Nov-17 19:03 60.390399 -141.943561 285 40207ft 472kts
11-Nov-17 19:04 60.412075 -142.205013 285 40149ft 471kts
11-Nov-17 19:05 60.432945 -142.463125 285 40169ft 471kts
11-Nov-17 19:06 60.453545 -142.724489 284 40174ft 470kts
11-Nov-17 19:07 60.473578 -142.985464 284 40177ft 469kts
11-Nov-17 19:08 60.493144 -143.247367 284 40178ft 468kts
11-Nov-17 19:09 60.512121 -143.508503 284 40177ft 469kts
11-Nov-17 19:10 60.530608 -143.770236 284 40197ft 469kts
11-Nov-17 19:11 60.548640 -144.033139 284 40192ft 468kts
11-Nov-17 19:12 60.566048 -144.294663 284 40178ft 467kts
11-Nov-17 19:13 60.582903 -144.555916 284 40180ft 466kts
11-Nov-17 19:14 60.599271 -144.817568 284 40173ft 464kts
11-Nov-17 19:15 60.614838 -145.074893 283 40162ft 463kts
11-Nov-17 19:16 60.630091 -145.335182 283 40156ft 461kts
11-Nov-17 19:17 60.645496 -145.593779 283 40161ft 460kts
11-Nov-17 19:18 60.659038 -145.852547 283 40176ft 459kts
11-Nov-17 19:19 60.671414 -146.112640 281 40201ft 460kts
11-Nov-17 19:20 60.680947 -146.371958 281 40245ft 457kts
11-Nov-17 19:21 60.689882 -146.626773 281 39454ft 439kts
11-Nov-17 19:22 60.699648 -146.870214 283 37507ft 421kts
11-Nov-17 19:23 60.708040 -147.103300 284 35656ft 404kts
11-Nov-17 19:24 60.715393 -147.327357 286 33873ft 387kts
11-Nov-17 19:25 60.722012 -147.540644 286 31495ft 374kts
11-Nov-17 19:26 60.728859 -147.743298 287 29551ft 340kts
11-Nov-17 19:27 60.734000 -147.941797 286 27828ft 358kts
11-Nov-17 19:28 60.738931 -148.142865 285 26023ft 348kts
11-Nov-17 19:29 60.754164 -148.329615 298 24259ft 321kts
11-Nov-17 19:30 60.780392 -148.501626 298 22541ft 313kts
11-Nov-17 19:31 60.806313 -148.669735 298 20854ft 305kts
11-Nov-17 19:32 60.830475 -148.834484 296 19210ft 299kts
11-Nov-17 19:33 60.853450 -148.996176 296 17595ft 292kts
11-Nov-17 19:34 60.875965 -149.155406 295 15916ft 289kts
11-Nov-17 19:35 60.903098 -149.305665 302 14223ft 282kts
11-Nov-17 19:36 60.935598 -149.457350 299 12901ft 302kts
11-Nov-17 19:37 60.968095 -149.614489 299 11521ft 291kts
11-Nov-17 19:38 61.002316 -149.758140 315 10242ft 265kts
11-Nov-17 19:39 61.056628 -149.854508 325 9033ft 251kts
11-Nov-17 19:40 61.102498 -149.956933 291 8062ft 246kts
11-Nov-17 19:41 61.104449 -150.095708 272 6738ft 230kts
11-Nov-17 19:42 61.102013 -150.230737 272 5111ft 232kts
11-Nov-17 19:43 61.099813 -150.358399 271 3605ft 210kts
11-Nov-17 19:44 61.099469 -150.473923 293 2325ft 195kts
11-Nov-17 19:45 61.146207 -150.500068 20 1997ft 188kts
11-Nov-17 19:46 61.170777 -150.406858 82 2045ft 194kts
11-Nov-17 19:47 61.169587 -150.293862 87 2048ft 197kts
11-Nov-17 19:48 61.169631 -150.184298 86 1898ft 168kts
11-Nov-17 19:49 61.169697 -150.097265 86 1064ft 141kts
11-Nov-17 19:50 61.169763 -150.016999 86 277ft 136kts
11-Nov-17 19:51 61.169789 -149.969525 87 165ft 19kts
11-Nov-17 19:52 61.171107 -149.968472 304 165ft 0kts
11-Nov-17 19:53 61.171107 -149.968474 304 165ft 0kts
11-Nov-17 19:54 61.171218 -149.978935 270 165ft 19kts
11-Nov-17 19:55 61.171871 -149.987388 337 165ft 11kts
11-Nov-17 19:56 61.176833 -149.990740 61 165ft 6kts
11-Nov-17 19:57 61.177833 -149.986615 346 165ft 6kts

Navigation Log

Ident Type
Flight plan parsing failed, navigation log unavailable